createdAt,value
2018-09-01T00:00:22.249Z,15.40
2018-09-01T00:02:50.333Z,15.40
2018-09-01T00:05:18.397Z,15.40
2018-09-01T00:07:47.280Z,15.40
2018-09-01T00:10:15.345Z,15.30
2018-09-01T00:12:43.402Z,15.40
2018-09-01T00:15:11.458Z,15.40
2018-09-01T00:17:39.516Z,15.30
2018-09-01T00:20:07.593Z,15.30
2018-09-01T00:22:35.674Z,15.30
2018-09-01T00:25:03.726Z,15.30
2018-09-01T00:27:31.786Z,15.30
2018-09-01T00:29:59.833Z,15.20
2018-09-01T00:32:27.905Z,15.20
2018-09-01T00:34:55.960Z,15.30
2018-09-01T00:38:27.266Z,15.20
2018-09-01T00:40:55.320Z,15.20
2018-09-01T00:43:23.372Z,15.20
2018-09-01T00:45:51.421Z,15.10
2018-09-01T00:48:19.478Z,15.10
2018-09-01T00:50:47.528Z,15.00
2018-09-01T00:53:15.580Z,15.10
2018-09-01T00:55:43.661Z,15.00
2018-09-01T00:58:11.716Z,15.10
2018-09-01T01:00:39.762Z,15.00
2018-09-01T01:03:07.824Z,15.10
2018-09-01T01:05:35.879Z,15.10
2018-09-01T01:08:03.957Z,15.10
2018-09-01T01:10:32.021Z,15.10
2018-09-01T01:13:00.082Z,15.10
2018-09-01T01:15:28.135Z,15.10
2018-09-01T01:17:56.181Z,15.10
2018-09-01T01:20:24.230Z,15.10
2018-09-01T01:22:52.305Z,15.10
2018-09-01T01:25:20.380Z,15.10
2018-09-01T01:27:48.443Z,15.10
2018-09-01T01:30:16.498Z,15.00
2018-09-01T01:32:44.549Z,15.00
2018-09-01T01:35:12.605Z,15.00
2018-09-01T01:37:40.663Z,15.00
2018-09-01T01:40:08.734Z,15.00
2018-09-01T01:42:37.271Z,15.00
2018-09-01T01:45:05.630Z,15.00
2018-09-01T01:47:37.797Z,14.90
2018-09-01T01:50:07.273Z,14.90
2018-09-01T01:52:35.364Z,14.90
2018-09-01T01:55:03.433Z,14.90
2018-09-01T01:57:31.489Z,14.90
2018-09-01T01:59:59.556Z,14.90
2018-09-01T02:02:27.628Z,14.90
2018-09-01T02:04:55.692Z,14.90
2018-09-01T02:07:23.760Z,14.90
2018-09-01T02:09:51.815Z,14.80
2018-09-01T02:12:19.900Z,14.90
2018-09-01T02:14:54.655Z,14.80
2018-09-01T02:17:22.709Z,14.80
2018-09-01T02:19:50.782Z,14.70
2018-09-01T02:22:18.860Z,14.70
2018-09-01T02:24:46.949Z,14.60
2018-09-01T02:27:15.002Z,14.50
2018-09-01T02:29:43.139Z,14.40
2018-09-01T02:32:11.205Z,14.30
2018-09-01T02:34:39.254Z,14.30
2018-09-01T02:37:07.318Z,14.20
2018-09-01T02:39:35.373Z,14.10
2018-09-01T02:42:03.427Z,14.00
2018-09-01T02:44:31.504Z,14.00
2018-09-01T02:46:59.556Z,13.90
2018-09-01T02:49:27.673Z,13.80
2018-09-01T02:51:55.742Z,13.80
2018-09-01T02:54:23.940Z,13.70
2018-09-01T02:56:51.989Z,13.60
2018-09-01T02:59:20.040Z,13.60
2018-09-01T03:01:48.156Z,13.60
2018-09-01T03:04:16.241Z,13.50
2018-09-01T03:06:51.481Z,13.40
2018-09-01T03:09:20.025Z,13.40
2018-09-01T03:11:48.316Z,13.30
2018-09-01T03:14:16.446Z,13.30
2018-09-01T03:16:44.516Z,13.30
2018-09-01T03:19:12.558Z,13.20
2018-09-01T03:21:40.656Z,13.20
2018-09-01T03:24:08.709Z,13.20
2018-09-01T03:26:36.772Z,13.20
2018-09-01T03:29:04.939Z,13.10
2018-09-01T03:31:33.018Z,13.10
2018-09-01T03:34:01.083Z,13.00
2018-09-01T03:36:29.145Z,13.00
2018-09-01T03:38:57.197Z,13.00
2018-09-01T03:41:25.257Z,12.90
2018-09-01T03:43:53.384Z,12.90
2018-09-01T03:46:21.476Z,12.90
2018-09-01T03:48:49.555Z,12.80
2018-09-01T03:51:17.716Z,12.80
2018-09-01T03:53:45.756Z,12.80
2018-09-01T03:56:13.820Z,12.70
2018-09-01T03:58:41.874Z,12.70
2018-09-01T04:01:09.932Z,12.70
2018-09-01T04:03:37.998Z,12.70
2018-09-01T04:06:10.993Z,12.70
2018-09-01T04:08:39.039Z,12.70
2018-09-01T04:11:07.099Z,12.70
2018-09-01T04:13:35.155Z,12.70
2018-09-01T04:16:03.230Z,12.80
2018-09-01T04:18:31.303Z,12.80
2018-09-01T04:20:59.371Z,12.80
2018-09-01T04:23:27.443Z,12.80
2018-09-01T04:25:55.661Z,12.80
2018-09-01T04:28:23.825Z,12.80
2018-09-01T04:30:51.995Z,12.80
2018-09-01T04:33:20.054Z,12.90
2018-09-01T04:35:48.121Z,12.80
2018-09-01T04:38:16.185Z,12.80
2018-09-01T04:40:44.772Z,12.80
2018-09-01T04:43:12.826Z,12.80
2018-09-01T04:45:41.460Z,12.80
2018-09-01T04:48:09.640Z,12.80
2018-09-01T04:50:37.805Z,12.80
2018-09-01T04:53:05.900Z,12.80
2018-09-01T04:55:33.977Z,12.80
2018-09-01T04:58:02.020Z,12.70
2018-09-01T05:00:30.086Z,12.70
2018-09-01T05:02:58.131Z,12.70
2018-09-01T05:05:26.179Z,12.70
2018-09-01T05:07:54.227Z,12.70
2018-09-01T05:10:22.284Z,12.70
2018-09-01T05:12:50.602Z,12.70
2018-09-01T05:15:18.674Z,12.70
2018-09-01T05:17:46.856Z,12.80
2018-09-01T05:20:14.940Z,12.80
2018-09-01T05:22:43.011Z,12.80
2018-09-01T05:25:11.085Z,12.80
2018-09-01T05:27:39.146Z,12.80
2018-09-01T05:30:08.308Z,12.80
2018-09-01T05:32:36.377Z,12.80
2018-09-01T05:35:04.632Z,12.90
2018-09-01T05:37:32.710Z,12.90
2018-09-01T05:40:00.769Z,13.00
2018-09-01T05:42:28.828Z,13.00
2018-09-01T05:44:56.894Z,13.10
2018-09-01T05:47:24.957Z,13.10
2018-09-01T05:49:53.021Z,13.20
2018-09-01T05:52:21.068Z,13.30
2018-09-01T05:54:49.136Z,13.40
2018-09-01T05:57:17.207Z,13.50
2018-09-01T05:59:45.256Z,13.60
2018-09-01T06:02:13.324Z,13.70
2018-09-01T06:04:41.381Z,13.70
2018-09-01T06:07:09.452Z,13.80
2018-09-01T06:09:37.571Z,13.80
2018-09-01T06:12:05.626Z,13.90
2018-09-01T06:14:33.668Z,14.00
2018-09-01T06:17:01.723Z,14.20
2018-09-01T06:19:30.068Z,14.30
2018-09-01T06:21:58.143Z,14.50
2018-09-01T06:24:26.190Z,14.60
2018-09-01T06:26:54.469Z,14.90
2018-09-01T06:29:22.528Z,15.20
2018-09-01T06:31:53.301Z,15.40
2018-09-01T06:34:21.552Z,15.70
2018-09-01T06:36:49.557Z,16.30
2018-09-01T06:39:17.633Z,17.00
2018-09-01T06:41:45.705Z,17.60
2018-09-01T06:44:13.772Z,18.40
2018-09-01T06:46:41.864Z,19.20
2018-09-01T06:49:09.912Z,20.40
2018-09-01T06:51:38.055Z,21.90
2018-09-01T06:54:06.150Z,23.40
2018-09-01T06:56:34.234Z,24.80
2018-09-01T06:59:02.300Z,26.20
2018-09-01T07:01:30.365Z,27.40
2018-09-01T07:03:58.404Z,28.40
2018-09-01T07:06:26.464Z,29.20
2018-09-01T07:08:54.577Z,30.00
2018-09-01T07:11:22.593Z,30.80
2018-09-01T07:13:50.648Z,31.20
2018-09-01T07:16:18.765Z,31.90
2018-09-01T07:18:46.848Z,32.60
2018-09-01T07:21:14.932Z,33.20
2018-09-01T07:23:42.993Z,33.80
2018-09-01T07:26:11.059Z,34.30
2018-09-01T07:28:39.160Z,34.80
2018-09-01T07:31:07.574Z,35.20
2018-09-01T07:33:35.420Z,35.70
2018-09-01T07:36:03.552Z,36.20
2018-09-01T07:38:31.648Z,36.50
2018-09-01T07:40:59.704Z,36.90
2018-09-01T07:43:27.762Z,37.30
2018-09-01T07:45:55.821Z,37.70
2018-09-01T07:48:23.894Z,38.10
2018-09-01T07:50:51.943Z,38.40
2018-09-01T07:53:20.008Z,38.80
2018-09-01T07:55:48.090Z,39.10
2018-09-01T07:58:16.151Z,39.40
2018-09-01T08:00:44.209Z,39.70
2018-09-01T08:03:12.272Z,40.30
2018-09-01T08:05:40.335Z,40.60
2018-09-01T08:08:08.410Z,40.80
2018-09-01T08:10:36.477Z,41.30
2018-09-01T08:13:04.733Z,41.60
2018-09-01T08:15:32.780Z,42.00
2018-09-01T08:18:00.859Z,42.40
2018-09-01T08:20:28.922Z,42.70
2018-09-01T08:22:56.993Z,42.90
2018-09-01T08:25:25.050Z,43.10
2018-09-01T08:27:53.145Z,43.30
2018-09-01T08:30:21.361Z,43.60
2018-09-01T08:32:49.761Z,43.60
2018-09-01T08:35:17.816Z,43.70
2018-09-01T08:37:45.885Z,43.90
2018-09-01T08:40:13.950Z,44.10
2018-09-01T08:42:41.996Z,44.40
2018-09-01T08:45:10.101Z,44.60
2018-09-01T08:47:38.120Z,44.90
2018-09-01T08:50:06.372Z,45.10
2018-09-01T08:52:34.428Z,45.50
2018-09-01T08:55:02.496Z,45.70
2018-09-01T08:57:30.933Z,46.00
2018-09-01T08:59:58.997Z,46.20
2018-09-01T09:02:27.058Z,46.10
2018-09-01T09:04:55.276Z,46.50
2018-09-01T09:07:23.349Z,46.60
2018-09-01T09:09:51.418Z,46.80
2018-09-01T09:12:19.509Z,47.10
2018-09-01T09:14:47.573Z,47.10
2018-09-01T09:17:15.657Z,47.20
2018-09-01T09:19:43.710Z,47.00
2018-09-01T09:22:11.976Z,47.00
2018-09-01T09:24:40.033Z,47.10
2018-09-01T09:27:08.345Z,47.50
2018-09-01T09:29:36.418Z,47.50
2018-09-01T09:32:04.485Z,47.60
2018-09-01T09:34:32.565Z,47.40
2018-09-01T09:37:00.609Z,47.40
2018-09-01T09:39:28.676Z,47.90
2018-09-01T09:41:58.040Z,48.40
2018-09-01T09:44:26.045Z,48.80
2018-09-01T09:46:54.132Z,48.60
2018-09-01T09:49:22.209Z,48.40
2018-09-01T09:51:50.283Z,47.80
2018-09-01T09:54:18.325Z,47.70
2018-09-01T09:56:46.441Z,47.50
2018-09-01T09:59:14.504Z,47.60
2018-09-01T10:01:42.682Z,47.80
2018-09-01T10:04:11.492Z,48.20
2018-09-01T10:06:39.760Z,48.10
2018-09-01T10:09:11.809Z,48.10
2018-09-01T10:11:40.532Z,48.30
2018-09-01T10:14:08.596Z,48.50
2018-09-01T10:16:36.701Z,48.40
2018-09-01T10:19:05.687Z,48.30
2018-09-01T10:21:33.736Z,48.40
2018-09-01T10:24:01.801Z,48.40
2018-09-01T10:26:29.861Z,48.40
2018-09-01T10:28:57.912Z,48.50
2018-09-01T10:31:25.972Z,48.70
2018-09-01T10:33:54.558Z,48.40
2018-09-01T10:36:22.597Z,48.10
2018-09-01T10:38:50.664Z,47.80
2018-09-01T10:41:18.704Z,47.50
2018-09-01T10:43:46.776Z,47.50
2018-09-01T10:46:14.829Z,47.40
2018-09-01T10:48:43.562Z,47.60
2018-09-01T10:51:11.626Z,47.60
2018-09-01T10:53:39.745Z,47.70
2018-09-01T10:56:07.805Z,47.70
2018-09-01T10:58:35.892Z,47.50
2018-09-01T11:01:03.944Z,47.50
2018-09-01T11:03:32.021Z,47.20
2018-09-01T11:06:00.090Z,45.10
2018-09-01T11:08:28.157Z,43.20
2018-09-01T11:10:56.230Z,42.70
2018-09-01T11:13:24.276Z,42.50
2018-09-01T11:15:52.340Z,40.80
2018-09-01T11:18:20.397Z,40.20
2018-09-01T11:20:48.499Z,40.20
2018-09-01T11:23:16.508Z,39.00
2018-09-01T11:25:44.594Z,39.20
2018-09-01T11:28:12.793Z,39.40
2018-09-01T11:30:41.116Z,39.80
2018-09-01T11:33:09.195Z,40.10
2018-09-01T11:35:37.238Z,40.00
2018-09-01T11:38:05.454Z,38.40
2018-09-01T11:40:33.540Z,36.50
2018-09-01T11:43:01.677Z,35.30
2018-09-01T11:45:29.834Z,34.40
2018-09-01T11:47:57.897Z,33.90
2018-09-01T11:50:26.041Z,34.10
2018-09-01T11:52:54.093Z,32.90
2018-09-01T11:55:22.152Z,32.40
2018-09-01T11:57:50.214Z,32.00
2018-09-01T12:00:18.388Z,31.60
2018-09-01T12:02:46.630Z,31.50
2018-09-01T12:05:14.716Z,31.70
2018-09-01T12:07:42.781Z,32.10
2018-09-01T12:10:10.959Z,32.30
2018-09-01T12:12:38.999Z,32.60
2018-09-01T12:15:07.140Z,32.80
2018-09-01T12:17:35.212Z,32.60
2018-09-01T12:20:03.272Z,31.80
2018-09-01T12:22:31.328Z,31.10
2018-09-01T12:24:59.411Z,30.70
2018-09-01T12:27:27.461Z,30.70
2018-09-01T12:29:55.605Z,30.70
2018-09-01T12:32:23.669Z,30.60
2018-09-01T12:34:51.781Z,30.40
2018-09-01T12:37:19.845Z,30.30
2018-09-01T12:39:47.936Z,30.30
2018-09-01T12:42:16.012Z,30.60
2018-09-01T12:44:44.072Z,30.60
2018-09-01T12:47:12.128Z,30.50
2018-09-01T12:49:40.286Z,30.50
2018-09-01T12:52:08.370Z,30.70
2018-09-01T12:54:36.427Z,30.90
2018-09-01T12:57:04.505Z,30.90
2018-09-01T12:59:32.596Z,30.90
2018-09-01T13:02:00.865Z,30.80
2018-09-01T13:04:28.944Z,30.70
2018-09-01T13:06:57.016Z,30.60
2018-09-01T13:09:25.066Z,30.50
2018-09-01T13:11:53.136Z,30.50
2018-09-01T13:14:21.192Z,30.70
2018-09-01T13:16:49.676Z,30.80
2018-09-01T13:19:17.732Z,30.80
2018-09-01T13:21:45.801Z,31.00
2018-09-01T13:24:13.856Z,31.30
2018-09-01T13:26:41.912Z,31.50
2018-09-01T13:29:10.469Z,31.60
2018-09-01T13:31:38.536Z,31.70
2018-09-01T13:34:06.613Z,31.60
2018-09-01T13:36:35.742Z,31.30
2018-09-01T13:39:04.783Z,31.30
2018-09-01T13:41:32.833Z,31.30
2018-09-01T13:44:00.896Z,31.30
2018-09-01T13:46:28.968Z,31.20
2018-09-01T13:48:57.064Z,31.30
2018-09-01T13:51:25.145Z,31.30
2018-09-01T13:53:53.204Z,31.40
2018-09-01T13:56:21.277Z,31.30
2018-09-01T13:58:49.346Z,31.30
2018-09-01T14:01:17.420Z,31.30
2018-09-01T14:03:45.494Z,31.20
2018-09-01T14:06:13.562Z,31.00
2018-09-01T14:08:41.616Z,30.90
2018-09-01T14:11:10.749Z,30.90
2018-09-01T14:13:38.840Z,31.10
2018-09-01T14:16:07.016Z,31.20
2018-09-01T14:18:35.073Z,31.20
2018-09-01T14:21:03.150Z,31.10
2018-09-01T14:23:31.208Z,31.10
2018-09-01T14:25:59.560Z,30.90
2018-09-01T14:28:29.235Z,30.70
2018-09-01T14:30:57.418Z,30.50
2018-09-01T14:33:25.513Z,30.50
2018-09-01T14:35:53.708Z,30.40
2018-09-01T14:38:21.826Z,30.50
2018-09-01T14:40:49.931Z,30.50
2018-09-01T14:43:18.184Z,30.50
2018-09-01T14:45:46.305Z,30.40
2018-09-01T14:48:14.419Z,30.30
2018-09-01T14:50:42.437Z,30.20
2018-09-01T14:53:10.496Z,30.20
2018-09-01T14:55:38.561Z,30.10
2018-09-01T14:58:06.637Z,30.10
2018-09-01T15:00:34.696Z,30.00
2018-09-01T15:03:02.767Z,29.90
2018-09-01T15:05:31.689Z,29.70
2018-09-01T15:07:59.838Z,29.40
2018-09-01T15:10:28.012Z,29.20
2018-09-01T15:12:55.985Z,29.00
2018-09-01T15:15:24.130Z,28.90
2018-09-01T15:17:52.244Z,28.70
2018-09-01T15:20:20.305Z,28.60
2018-09-01T15:22:48.364Z,28.60
2018-09-01T15:25:16.441Z,28.60
2018-09-01T15:27:44.506Z,28.60
2018-09-01T15:30:12.568Z,28.50
2018-09-01T15:32:40.811Z,28.40
2018-09-01T15:35:08.848Z,28.20
2018-09-01T15:37:36.916Z,28.00
2018-09-01T15:40:04.996Z,27.70
2018-09-01T15:42:33.093Z,27.60
2018-09-01T15:45:01.155Z,27.40
2018-09-01T15:47:29.217Z,27.20
2018-09-01T15:49:57.277Z,27.10
2018-09-01T15:52:25.361Z,26.90
2018-09-01T15:54:53.416Z,26.70
2018-09-01T15:57:21.469Z,26.50
2018-09-01T15:59:49.516Z,26.40
2018-09-01T16:02:17.581Z,26.30
2018-09-01T16:04:45.647Z,26.30
2018-09-01T16:07:13.724Z,26.10
2018-09-01T16:09:41.796Z,26.00
2018-09-01T16:12:09.840Z,26.00
2018-09-01T16:14:37.894Z,25.70
2018-09-01T16:17:06.165Z,25.70
2018-09-01T16:19:34.223Z,25.60
2018-09-01T16:22:02.286Z,25.60
2018-09-01T16:24:30.394Z,25.50
2018-09-01T16:26:58.384Z,25.40
2018-09-01T16:29:26.440Z,25.30
2018-09-01T16:31:54.501Z,25.20
2018-09-01T16:34:22.552Z,25.20
2018-09-01T16:36:50.610Z,25.00
2018-09-01T16:39:18.664Z,25.00
2018-09-01T16:41:46.744Z,24.90
2018-09-01T16:44:14.839Z,24.80
2018-09-01T16:46:42.894Z,24.70
2018-09-01T16:49:10.953Z,24.60
2018-09-01T16:51:39.013Z,24.60
2018-09-01T16:54:07.073Z,24.50
2018-09-01T16:56:35.143Z,24.40
2018-09-01T16:59:03.449Z,24.30
2018-09-01T17:01:31.728Z,24.10
2018-09-01T17:04:00.016Z,24.10
2018-09-01T17:06:28.084Z,24.00
2018-09-01T17:08:56.140Z,23.90
2018-09-01T17:11:24.195Z,23.70
2018-09-01T17:13:52.264Z,23.60
2018-09-01T17:16:20.316Z,23.50
2018-09-01T17:18:48.372Z,23.40
2018-09-01T17:21:16.409Z,23.30
2018-09-01T17:23:44.505Z,23.30
2018-09-01T17:26:12.554Z,23.20
2018-09-01T17:28:40.635Z,23.20
2018-09-01T17:31:08.693Z,23.00
2018-09-01T17:33:36.799Z,23.00
2018-09-01T17:36:04.807Z,22.80
2018-09-01T17:38:32.877Z,22.70
2018-09-01T17:41:00.922Z,22.70
2018-09-01T17:43:28.980Z,22.50
2018-09-01T17:45:57.064Z,22.50
2018-09-01T17:48:25.137Z,22.30
2018-09-01T17:50:53.215Z,22.20
2018-09-01T17:53:21.260Z,22.20
2018-09-01T17:55:49.305Z,22.10
2018-09-01T17:58:17.383Z,21.90
2018-09-01T18:00:45.572Z,21.80
2018-09-01T18:03:13.637Z,21.70
2018-09-01T18:05:41.684Z,21.60
2018-09-01T18:08:09.753Z,21.50
2018-09-01T18:10:37.824Z,21.40
2018-09-01T18:13:05.905Z,21.30
2018-09-01T18:15:34.012Z,21.20
2018-09-01T18:18:02.069Z,21.10
2018-09-01T18:20:30.129Z,20.90
2018-09-01T18:22:58.231Z,20.80
2018-09-01T18:25:26.299Z,20.70
2018-09-01T18:27:54.326Z,20.60
2018-09-01T18:30:22.388Z,20.50
2018-09-01T18:32:50.432Z,20.40
2018-09-01T18:35:18.552Z,20.30
2018-09-01T18:37:46.531Z,20.10
2018-09-01T18:40:14.785Z,20.00
2018-09-01T18:42:42.865Z,19.90
2018-09-01T18:45:10.943Z,19.80
2018-09-01T18:47:38.998Z,19.70
2018-09-01T18:50:07.367Z,19.60
2018-09-01T18:52:35.546Z,19.60
2018-09-01T18:55:03.607Z,19.50
2018-09-01T18:57:31.701Z,19.40
2018-09-01T18:59:59.776Z,19.30
2018-09-01T19:02:27.996Z,19.20
2018-09-01T19:04:56.165Z,19.20
2018-09-01T19:07:24.140Z,19.10
2018-09-01T19:09:52.248Z,19.00
2018-09-01T19:12:20.307Z,18.90
2018-09-01T19:14:48.364Z,18.80
2018-09-01T19:17:16.477Z,18.70
2018-09-01T19:19:44.541Z,18.70
2018-09-01T19:22:12.615Z,18.60
2018-09-01T19:24:40.676Z,18.50
2018-09-01T19:27:08.741Z,18.50
2018-09-01T19:29:36.909Z,18.40
2018-09-01T19:32:04.957Z,18.30
2018-09-01T19:34:33.053Z,18.20
2018-09-01T19:37:01.108Z,18.10
2018-09-01T19:39:29.167Z,18.10
2018-09-01T19:41:57.220Z,18.00
2018-09-01T19:44:25.312Z,17.90
2018-09-01T19:46:53.365Z,17.90
2018-09-01T19:49:21.432Z,17.80
2018-09-01T19:51:49.496Z,17.80
2018-09-01T19:54:17.545Z,17.70
2018-09-01T19:56:45.674Z,17.70
2018-09-01T19:59:20.415Z,17.60
2018-09-01T20:01:48.464Z,17.50
2018-09-01T20:04:16.521Z,17.50
2018-09-01T20:06:44.578Z,17.40
2018-09-01T20:09:12.634Z,17.40
2018-09-01T20:11:40.681Z,17.30
2018-09-01T20:14:08.814Z,17.30
2018-09-01T20:16:36.789Z,17.30
2018-09-01T20:19:05.220Z,17.20
2018-09-01T20:21:33.312Z,17.20
2018-09-01T20:24:01.588Z,17.20
2018-09-01T20:26:30.132Z,17.10
2018-09-01T20:28:58.309Z,17.00
2018-09-01T20:31:26.375Z,17.00
2018-09-01T20:33:54.428Z,16.90
2018-09-01T20:36:23.217Z,16.90
2018-09-01T20:38:51.276Z,16.80
2018-09-01T20:41:19.344Z,16.80
2018-09-01T20:43:47.410Z,16.80
2018-09-01T20:46:15.490Z,16.70
2018-09-01T20:48:43.547Z,16.70
2018-09-01T20:51:11.629Z,16.60
2018-09-01T20:53:39.687Z,16.60
2018-09-01T20:56:07.768Z,16.60
2018-09-01T20:58:35.845Z,16.50
2018-09-01T21:01:03.927Z,16.50
2018-09-01T21:03:32.052Z,16.40
2018-09-01T21:06:00.104Z,16.40
2018-09-01T21:08:28.152Z,16.40
2018-09-01T21:10:56.210Z,16.30
2018-09-01T21:13:24.263Z,16.30
2018-09-01T21:15:52.331Z,16.20
2018-09-01T21:18:20.384Z,16.20
2018-09-01T21:20:48.424Z,16.20
2018-09-01T21:23:16.533Z,16.10
2018-09-01T21:25:44.615Z,16.10
2018-09-01T21:28:12.656Z,16.10
2018-09-01T21:30:40.860Z,16.10
2018-09-01T21:33:08.911Z,16.00
2018-09-01T21:35:36.989Z,16.00
2018-09-01T21:38:05.054Z,15.90
2018-09-01T21:40:33.106Z,15.90
2018-09-01T21:43:01.156Z,15.90
2018-09-01T21:45:29.230Z,15.90
2018-09-01T21:47:57.285Z,15.90
2018-09-01T21:50:25.372Z,15.80
2018-09-01T21:52:53.430Z,15.80
2018-09-01T21:55:21.487Z,15.80
2018-09-01T21:57:49.648Z,15.80
2018-09-01T22:00:17.973Z,15.80
2018-09-01T22:02:46.024Z,15.70
2018-09-01T22:05:17.236Z,15.80
2018-09-01T22:07:45.513Z,15.70
2018-09-01T22:10:13.565Z,15.70
2018-09-01T22:12:41.628Z,15.70
2018-09-01T22:15:09.664Z,15.70
2018-09-01T22:17:37.720Z,15.70
2018-09-01T22:20:05.801Z,15.70
2018-09-01T22:22:34.017Z,15.60
2018-09-01T22:25:02.140Z,15.60
2018-09-01T22:27:30.196Z,15.60
2018-09-01T22:29:58.246Z,15.60
2018-09-01T22:32:26.316Z,15.60
2018-09-01T22:34:54.364Z,15.60
2018-09-01T22:37:22.412Z,15.60
2018-09-01T22:39:50.469Z,15.60
2018-09-01T22:42:18.531Z,15.70
2018-09-01T22:44:46.580Z,15.70
2018-09-01T22:47:22.027Z,15.70
2018-09-01T22:49:50.079Z,15.70
2018-09-01T22:52:18.202Z,15.80
2018-09-01T22:54:46.256Z,15.80
2018-09-01T22:57:14.329Z,15.80
2018-09-01T22:59:42.384Z,15.80
2018-09-01T23:02:10.440Z,15.80
2018-09-01T23:04:38.510Z,15.90
2018-09-01T23:07:06.575Z,15.90
2018-09-01T23:09:34.657Z,15.90
2018-09-01T23:12:02.717Z,15.90
2018-09-01T23:14:30.758Z,15.90
2018-09-01T23:16:58.812Z,15.90
2018-09-01T23:19:26.869Z,16.00
2018-09-01T23:21:54.953Z,16.00
2018-09-01T23:24:22.998Z,16.00
2018-09-01T23:26:51.112Z,16.00
2018-09-01T23:29:19.169Z,16.10
2018-09-01T23:31:47.455Z,16.00
2018-09-01T23:34:15.511Z,16.00
2018-09-01T23:36:43.641Z,16.00
2018-09-01T23:39:12.325Z,16.00
2018-09-01T23:41:40.613Z,16.00
2018-09-01T23:44:08.899Z,16.00
2018-09-01T23:46:36.968Z,16.00
2018-09-01T23:49:05.273Z,16.00
2018-09-01T23:51:33.331Z,15.90
2018-09-01T23:54:01.387Z,15.90
2018-09-01T23:56:29.533Z,15.90
2018-09-01T23:58:57.932Z,16.00
